Terminal Aerodrome Forecast
Issued by NWS

Home | Current Version | Previous Version | Graphics & Text | Print | Product List | Glossary On
Versions: 1 2 3 4 5 6 7 8 9 10 11 12 13 14 15 16
000
FTUS43 KGRB 241900 AAA
TAFATW
TAF AMD
KATW 241952Z 2420/2518 35008KT 1/2SM FG OVC003
      TEMPO 2421/2423 2SM BR OVC005
     FM242300 35009G18KT 5SM BR OVC012
     FM250100 32008G16KT P6SM SCT015 OVC020
     FM250600 27008KT P6SM OVC020
     FM251400 23008KT P6SM OVC025=

USA.gov is the U.S. government's official web portal to all federal, state and local government web resources and services.